Time;durP1;ratioP1;P1;durP2;ratioP2;P2;SDS_P1;SDS_P2;PMS_P1;PMS_P2;Temp;Humidity;BMP_temperature;BMP_pressure;BME280_temperature;BME280_humidity;BME280_pressure;Samples;Min_cycle;Max_cycle;Signal;HPM_P1;HPM_P2
2022/10/05 00:00:55;;;;;;;14.38;7.13;;;17.20;99.80;;;;;;5135366;27;20040;-77
2022/10/05 00:03:24;;;;;;;18.38;7.78;;;17.10;99.90;;;;;;5135224;27;20043;-78
2022/10/05 00:05:49;;;;;;;11.88;7.00;;;17.10;99.90;;;;;;5118086;28;20051;-77
2022/10/05 00:08:23;;;;;;;11.27;7.38;;;17.00;99.90;;;;;;5118358;28;20035;-77
2022/10/05 00:10:50;;;;;;;13.32;7.13;;;17.10;99.90;;;;;;5117609;28;20044;-77
2022/10/05 00:13:20;;;;;;;11.60;6.90;;;17.20;99.90;;;;;;5117988;28;20105;-78
2022/10/05 00:15:47;;;;;;;13.02;7.32;;;17.20;99.90;;;;;;5118932;28;20054;-78
2022/10/05 00:18:20;;;;;;;15.55;7.43;;;17.20;99.90;;;;;;5135196;27;20047;-78
2022/10/05 00:20:47;;;;;;;13.00;7.78;;;17.20;99.90;;;;;;5118885;28;20119;-77
2022/10/05 00:23:20;;;;;;;13.88;7.53;;;17.20;99.90;;;;;;5134763;27;20039;-77
2022/10/05 00:25:46;;;;;;;12.25;6.68;;;17.10;99.90;;;;;;5117752;28;20144;-77
2022/10/05 00:28:17;;;;;;;15.07;7.35;;;17.20;99.90;;;;;;5134721;27;20043;-77
2022/10/05 00:30:43;;;;;;;10.40;7.20;;;17.30;99.90;;;;;;5152296;27;20095;-77
2022/10/05 00:33:08;;;;;;;10.18;6.00;;;17.20;99.90;;;;;;5151934;27;20382;-77
2022/10/05 00:35:35;;;;;;;11.88;7.07;;;17.10;99.90;;;;;;5151840;27;20044;-77
2022/10/05 00:38:01;;;;;;;13.48;7.32;;;17.30;99.90;;;;;;5134849;27;20332;-77
2022/10/05 00:40:55;;;;;;;12.95;6.55;;;17.20;99.90;;;;;;5118064;28;20051;-77
2022/10/05 00:43:48;;;;;;;11.75;6.30;;;17.30;99.90;;;;;;5117460;28;20097;-77
2022/10/05 00:46:26;;;;;;;11.60;6.43;;;17.20;99.90;;;;;;5117305;28;20047;-77
2022/10/05 00:48:51;;;;;;;12.38;6.63;;;17.10;99.90;;;;;;5134363;27;20039;-77
2022/10/05 00:51:23;;;;;;;10.13;5.95;;;17.20;99.90;;;;;;5151849;27;20047;-77
2022/10/05 00:54:01;;;;;;;10.43;5.78;;;17.20;99.90;;;;;;5100192;28;20118;-77
2022/10/05 00:56:44;;;;;;;10.50;5.40;;;17.20;99.80;;;;;;5151726;27;20043;-77
2022/10/05 00:59:27;;;;;;;10.70;5.38;;;17.20;99.80;;;;;;5118457;28;20057;-77
2022/10/05 01:01:58;;;;;;;9.85;5.45;;;17.00;99.90;;;;;;5100076;28;20075;-77
2022/10/05 01:04:24;;;;;;;12.90;5.50;;;17.10;99.90;;;;;;5118261;28;20100;-77
2022/10/05 01:07:06;;;;;;;11.98;5.25;;;17.10;99.90;;;;;;5099927;28;20421;-77
2022/10/05 01:10:04;;;;;;;10.02;4.80;;;17.10;99.90;;;;;;5099930;28;20043;-77
2022/10/05 01:12:54;;;;;;;9.65;4.93;;;17.10;99.80;;;;;;5097269;28;20051;-78
2022/10/05 01:15:41;;;;;;;10.85;4.80;;;17.10;99.90;;;;;;5099769;28;20050;-78
2022/10/05 01:18:24;;;;;;;7.75;4.35;;;16.90;99.80;;;;;;5099762;28;20046;-78
2022/10/05 01:21:09;;;;;;;11.88;4.40;;;16.90;99.90;;;;;;5151111;27;20100;-77
2022/10/05 01:24:01;;;;;;;8.02;4.72;;;16.90;99.90;;;;;;5117881;28;20051;-77
2022/10/05 01:26:41;;;;;;;8.30;4.43;;;17.00;99.90;;;;;;5151039;27;20055;-78
2022/10/05 01:29:24;;;;;;;8.43;4.10;;;17.10;99.90;;;;;;5150973;27;20035;-77
2022/10/05 01:31:54;;;;;;;9.30;4.15;;;16.80;99.90;;;;;;5133634;27;20075;-77
2022/10/05 01:34:39;;;;;;;10.00;4.85;;;16.90;99.90;;;;;;5099708;28;20126;-77
2022/10/05 01:37:38;;;;;;;7.43;4.43;;;16.80;99.90;;;;;;5116349;28;20122;-78
2022/10/05 01:40:25;;;;;;;9.05;4.20;;;16.80;99.90;;;;;;5132568;27;20378;-78
2022/10/05 01:43:08;;;;;;;9.60;4.45;;;16.90;99.90;;;;;;5116143;28;20421;-77
2022/10/05 01:45:49;;;;;;;14.30;4.78;;;16.90;99.90;;;;;;5150951;27;20363;-77
2022/10/05 01:48:39;;;;;;;7.18;4.75;;;16.80;99.90;;;;;;5099188;28;20047;-77
2022/10/05 01:51:21;;;;;;;9.95;4.93;;;16.80;99.90;;;;;;5099142;28;20035;-78
2022/10/05 01:54:09;;;;;;;7.88;4.68;;;16.80;99.90;;;;;;5133483;27;20051;-77
2022/10/05 01:57:07;;;;;;;11.32;5.93;;;16.80;99.90;;;;;;5116108;28;20040;-78
2022/10/05 01:59:44;;;;;;;11.65;5.15;;;16.80;99.90;;;;;;5116099;28;20048;-77
2022/10/05 02:02:11;;;;;;;;;;;16.80;99.90;;;;;;5099537;28;20080;-78
2022/10/05 02:04:48;;;;;;;13.93;6.07;;;16.80;99.90;;;;;;5150727;27;19915;-77
2022/10/05 02:07:37;;;;;;;9.63;4.97;;;16.80;99.90;;;;;;5115983;28;20039;-77
2022/10/05 02:10:25;;;;;;;11.60;6.93;;;16.80;99.90;;;;;;5116087;28;20035;-77
2022/10/05 02:12:59;;;;;;;8.90;5.65;;;16.80;99.90;;;;;;5117284;28;20040;-77
2022/10/05 02:15:36;;;;;;;11.93;6.20;;;16.80;99.90;;;;;;5150603;27;20306;-77
2022/10/05 02:18:11;;;;;;;12.30;6.20;;;16.90;99.90;;;;;;5098848;28;20047;-78
2022/10/05 02:20:41;;;;;;;11.40;5.85;;;16.80;99.90;;;;;;5115882;28;20421;-77
2022/10/05 02:23:12;;;;;;;13.60;6.05;;;16.90;99.90;;;;;;5115877;28;20086;-77
2022/10/05 02:25:41;;;;;;;15.07;6.45;;;16.90;99.90;;;;;;5115862;28;20098;-77
2022/10/05 02:28:16;;;;;;;13.95;6.25;;;17.00;99.90;;;;;;5150440;27;20100;-77
2022/10/05 02:30:47;;;;;;;11.00;5.72;;;17.00;99.90;;;;;;5117134;28;20355;-77
2022/10/05 02:33:22;;;;;;;13.45;5.97;;;17.00;99.90;;;;;;5115739;28;20082;-77
2022/10/05 02:35:47;;;;;;;11.23;6.22;;;17.00;99.90;;;;;;5117661;28;20333;-77
2022/10/05 02:38:42;;;;;;;12.30;6.00;;;16.90;99.90;;;;;;5098654;28;20044;-77
2022/10/05 02:41:37;;;;;;;10.57;5.85;;;16.90;99.90;;;;;;5116070;28;20067;-77
2022/10/05 02:44:24;;;;;;;9.45;5.28;;;16.90;99.90;;;;;;5110995;28;20075;-77
2022/10/05 02:47:01;;;;;;;10.85;5.80;;;16.90;99.90;;;;;;5098691;28;20067;-77
2022/10/05 02:49:33;;;;;;;13.77;6.28;;;16.90;99.90;;;;;;5116636;28;20371;-77
2022/10/05 02:52:17;;;;;;;10.30;5.82;;;16.90;99.90;;;;;;5152267;27;20328;-78
2022/10/05 02:55:00;;;;;;;12.45;6.45;;;16.90;99.90;;;;;;5119543;28;20075;-77
2022/10/05 02:57:32;;;;;;;12.10;6.10;;;16.90;99.90;;;;;;5102431;28;20039;-77
2022/10/05 03:00:22;;;;;;;8.50;5.30;;;17.00;99.90;;;;;;5102341;28;20039;-77
2022/10/05 03:03:29;;;;;;;11.57;6.15;;;17.10;99.90;;;;;;5153655;27;20038;-77
2022/10/05 03:05:59;;;;;;;10.20;5.90;;;17.00;99.90;;;;;;5114554;28;20440;-77
2022/10/05 03:09:04;;;;;;;8.48;5.25;;;17.00;99.90;;;;;;5119236;28;20314;-77
2022/10/05 03:11:51;;;;;;;10.50;5.55;;;17.00;99.90;;;;;;5131397;27;20043;-77
2022/10/05 03:14:17;;;;;;;;;;;17.10;99.90;;;;;;5120644;28;20163;-78
2022/10/05 03:16:45;;;;;;;10.77;6.32;;;17.00;99.90;;;;;;5119122;28;19915;-77
2022/10/05 03:19:40;;;;;;;8.98;5.38;;;16.90;99.90;;;;;;5153706;27;20333;-77
2022/10/05 03:22:46;;;;;;;9.68;5.40;;;16.90;99.90;;;;;;5115945;28;20047;-77
2022/10/05 03:25:47;;;;;;;9.80;5.22;;;17.00;99.90;;;;;;5119176;28;20044;-77
2022/10/05 03:28:28;;;;;;;8.43;5.22;;;17.00;99.90;;;;;;5135969;27;20039;-77
2022/10/05 03:31:02;;;;;;;9.60;4.88;;;17.00;99.90;;;;;;5102064;28;20367;-77
2022/10/05 03:33:52;;;;;;;11.07;4.88;;;16.90;99.90;;;;;;5135940;27;20130;-78
2022/10/05 03:36:27;;;;;;;9.77;5.07;;;16.80;99.90;;;;;;5118698;28;20046;-78
2022/10/05 03:39:08;;;;;;;11.05;5.20;;;16.90;99.90;;;;;;5153071;27;20109;-78
2022/10/05 03:42:12;;;;;;;11.02;5.07;;;16.70;99.90;;;;;;5118063;28;20058;-77
2022/10/05 03:45:02;;;;;;;11.73;5.07;;;16.80;99.90;;;;;;5037188;28;20037;-77
2022/10/05 03:47:48;;;;;;;10.40;4.88;;;16.90;99.90;;;;;;5020349;28;20187;-77
2022/10/05 03:51:08;;;;;;;9.43;4.22;;;16.80;99.90;;;;;;5129462;27;20055;-77
2022/10/05 03:54:04;;;;;;;8.18;3.78;;;16.80;99.90;;;;;;5020342;28;20140;-77
2022/10/05 03:57:02;;;;;;;7.68;4.20;;;16.90;99.90;;;;;;5076763;28;20080;-77
2022/10/05 03:59:55;;;;;;;8.88;3.95;;;16.90;99.90;;;;;;5132944;27;20117;-77
2022/10/05 04:02:26;;;;;;;8.40;4.40;;;16.80;99.90;;;;;;5124795;27;20059;-77
2022/10/05 04:05:00;;;;;;;9.77;4.60;;;16.90;99.90;;;;;;5117752;28;20036;-77
2022/10/05 04:08:05;;;;;;;7.38;4.55;;;16.80;99.90;;;;;;5118091;28;20040;-77
2022/10/05 04:10:42;;;;;;;7.45;4.07;;;16.80;99.90;;;;;;5129975;27;20509;-77
2022/10/05 04:13:19;;;;;;;7.47;4.40;;;16.80;99.90;;;;;;5118021;28;20040;-78
2022/10/05 04:16:12;;;;;;;9.30;4.70;;;16.80;99.90;;;;;;5118233;28;20134;-77
2022/10/05 04:18:56;;;;;;;8.43;4.85;;;16.80;99.90;;;;;;5104398;28;20048;-78
2022/10/05 04:21:31;;;;;;;9.50;4.72;;;16.90;99.90;;;;;;5117864;28;20075;-77
2022/10/05 04:24:10;;;;;;;10.70;5.10;;;16.90;99.90;;;;;;5117780;28;20094;-77
2022/10/05 04:26:49;;;;;;;8.18;5.18;;;16.80;99.90;;;;;;5152193;27;20119;-77
2022/10/05 04:29:44;;;;;;;8.65;4.85;;;16.70;99.90;;;;;;5117642;28;20039;-77
2022/10/05 04:32:35;;;;;;;8.60;4.80;;;16.60;99.90;;;;;;5117692;27;20432;-78
2022/10/05 04:35:38;;;;;;;12.32;4.70;;;16.60;99.90;;;;;;5150276;27;20036;-79
2022/10/05 04:38:10;;;;;;;10.98;5.28;;;16.50;99.90;;;;;;5117481;28;20047;-77
2022/10/05 04:40:47;;;;;;;9.65;4.85;;;16.60;99.90;;;;;;5116828;28;20060;-77
2022/10/05 04:43:26;;;;;;;7.00;4.57;;;16.60;99.90;;;;;;5117320;28;20435;-77
2022/10/05 04:46:32;;;;;;;12.32;5.30;;;16.60;99.90;;;;;;5118671;28;20035;-77
2022/10/05 04:49:20;;;;;;;9.27;4.93;;;16.70;99.90;;;;;;5100260;28;20036;-77
2022/10/05 04:51:55;;;;;;;9.70;4.85;;;16.60;99.90;;;;;;5117488;28;20036;-77
2022/10/05 04:54:38;;;;;;;10.20;5.95;;;16.60;99.90;;;;;;5116928;28;20039;-77
2022/10/05 04:57:12;;;;;;;10.35;5.65;;;16.50;99.90;;;;;;5117914;28;20040;-77
2022/10/05 04:59:59;;;;;;;11.65;5.93;;;16.50;99.90;;;;;;5117145;28;20404;-77
2022/10/05 05:02:43;;;;;;;10.38;6.30;;;16.50;99.90;;;;;;5099684;28;20046;-77
2022/10/05 05:05:24;;;;;;;12.35;6.47;;;16.60;99.90;;;;;;5117037;28;20036;-77
2022/10/05 05:08:00;;;;;;;18.13;6.97;;;16.40;99.90;;;;;;5116831;28;20071;-76
2022/10/05 05:10:48;;;;;;;18.13;7.30;;;16.40;99.90;;;;;;5116446;28;20042;-78
2022/10/05 05:13:35;;;;;;;11.43;6.88;;;16.30;99.90;;;;;;5117266;28;20040;-77
2022/10/05 05:16:28;;;;;;;12.90;6.80;;;16.40;99.90;;;;;;5099728;28;20126;-78
2022/10/05 05:19:00;;;;;;;12.25;6.97;;;16.30;99.90;;;;;;5117066;28;20039;-77
2022/10/05 05:21:25;;;;;;;14.30;7.53;;;16.40;99.90;;;;;;5116672;28;20127;-77
2022/10/05 05:24:09;;;;;;;9.07;6.63;;;16.40;99.90;;;;;;5116509;28;20138;-77
2022/10/05 05:27:09;;;;;;;13.27;6.57;;;16.50;99.90;;;;;;5116596;28;20082;-77
2022/10/05 05:30:12;;;;;;;10.90;6.47;;;16.50;99.90;;;;;;5117889;28;20119;-77
2022/10/05 05:32:58;;;;;;;9.77;6.10;;;16.50;99.90;;;;;;5117869;28;20039;-77
2022/10/05 05:35:55;;;;;;;9.35;5.78;;;16.30;99.90;;;;;;5116396;28;20541;-77
2022/10/05 05:38:43;;;;;;;12.80;6.78;;;16.40;99.90;;;;;;5099511;28;20157;-77
2022/10/05 05:41:19;;;;;;;9.25;5.80;;;16.40;99.90;;;;;;5116731;28;20063;-77
2022/10/05 05:44:05;;;;;;;8.18;5.07;;;16.20;99.90;;;;;;5116832;28;20453;-77
2022/10/05 05:46:54;;;;;;;12.80;5.53;;;16.40;99.90;;;;;;5099273;28;20047;-77
2022/10/05 05:49:46;;;;;;;11.23;6.20;;;16.40;99.90;;;;;;5117601;28;20404;-77
2022/10/05 05:52:23;;;;;;;10.55;5.35;;;16.40;99.90;;;;;;5099296;28;20134;-77
2022/10/05 05:54:55;;;;;;;24.67;6.38;;;16.40;99.90;;;;;;5117540;28;20048;-77
2022/10/05 05:57:28;;;;;;;9.05;5.63;;;16.40;99.90;;;;;;5116140;28;20040;-77
2022/10/05 06:00:05;;;;;;;9.75;5.38;;;16.40;99.90;;;;;;5116381;28;20044;-77
2022/10/05 06:02:39;;;;;;;8.43;5.20;;;16.30;99.90;;;;;;5116184;28;20039;-78
2022/10/05 06:05:29;;;;;;;10.30;5.50;;;16.40;99.90;;;;;;5116007;28;20332;-76
2022/10/05 06:08:00;;;;;;;9.88;5.00;;;16.30;99.90;;;;;;5099015;28;20421;-77
2022/10/05 06:10:37;;;;;;;9.73;5.40;;;16.30;99.90;;;;;;5115978;28;20032;-77
2022/10/05 06:13:11;;;;;;;12.18;5.53;;;16.50;99.90;;;;;;5117010;28;20436;-77
2022/10/05 06:15:58;;;;;;;11.82;5.55;;;16.50;99.90;;;;;;5115931;28;20321;-78
2022/10/05 06:18:24;;;;;;;9.90;5.50;;;16.50;99.90;;;;;;5116941;28;20035;-77
2022/10/05 06:21:03;;;;;;;10.32;5.25;;;16.40;99.90;;;;;;5117181;28;20328;-77
2022/10/05 06:23:46;;;;;;;11.10;5.57;;;16.30;99.90;;;;;;5115840;28;20340;-77
2022/10/05 06:26:28;;;;;;;7.25;4.60;;;16.40;99.90;;;;;;5099717;28;20122;-76
2022/10/05 06:29:02;;;;;;;9.70;4.82;;;16.50;99.90;;;;;;5103245;28;20101;-70
2022/10/05 06:31:47;;;;;;;9.55;5.07;;;16.40;99.90;;;;;;5120963;28;20418;-72
2022/10/05 06:34:22;;;;;;;11.10;5.53;;;16.50;99.90;;;;;;5121206;28;20092;-73
2022/10/05 06:36:54;;;;;;;7.47;5.20;;;16.50;99.90;;;;;;5121151;28;20119;-72
2022/10/05 06:39:42;;;;;;;7.55;5.13;;;16.40;99.90;;;;;;5121155;28;20035;-71
2022/10/05 06:42:13;;;;;;;10.48;5.25;;;16.40;99.90;;;;;;5120618;28;20052;-71
2022/10/05 06:44:53;;;;;;;10.07;5.72;;;16.50;99.90;;;;;;5121032;28;20054;-72
2022/10/05 06:47:48;;;;;;;9.43;5.25;;;16.50;99.90;;;;;;5121041;28;20047;-71
2022/10/05 06:50:43;;;;;;;10.25;4.97;;;16.50;99.90;;;;;;5120643;28;20097;-72
2022/10/05 06:53:29;;;;;;;8.50;4.95;;;16.50;99.90;;;;;;5121155;28;20119;-72
2022/10/05 06:56:09;;;;;;;11.10;5.32;;;16.60;99.90;;;;;;5119525;28;20047;-71
2022/10/05 06:58:57;;;;;;;8.77;5.25;;;16.60;99.90;;;;;;5120793;28;20075;-70
2022/10/05 07:01:50;;;;;;;11.00;5.75;;;16.60;99.90;;;;;;5120758;28;20036;-71
2022/10/05 07:04:29;;;;;;;12.38;6.15;;;16.60;99.90;;;;;;5120614;28;20051;-72
2022/10/05 07:07:06;;;;;;;13.73;5.70;;;16.40;99.90;;;;;;5120642;28;20122;-75
2022/10/05 07:09:53;;;;;;;12.40;5.05;;;16.50;99.90;;;;;;5121166;28;20101;-74
2022/10/05 07:12:25;;;;;;;7.22;5.18;;;16.40;99.90;;;;;;5122268;28;20046;-77
2022/10/05 07:15:29;;;;;;;11.63;5.40;;;16.30;99.90;;;;;;5121698;28;20040;-73
2022/10/05 07:18:11;;;;;;;9.55;4.90;;;16.40;99.90;;;;;;5120361;28;20043;-73
2022/10/05 07:21:02;;;;;;;9.68;5.50;;;16.30;99.90;;;;;;5120506;28;20362;-73
2022/10/05 07:23:46;;;;;;;9.65;5.13;;;16.30;99.90;;;;;;5119888;28;20439;-73
2022/10/05 07:26:29;;;;;;;7.47;4.93;;;16.30;99.90;;;;;;5120217;28;20062;-75
2022/10/05 07:29:06;;;;;;;10.65;5.22;;;16.30;99.90;;;;;;5120230;28;20042;-72
2022/10/05 07:31:55;;;;;;;8.77;4.75;;;16.40;99.90;;;;;;5120091;28;20040;-72
2022/10/05 07:34:24;;;;;;;10.10;4.47;;;16.30;99.90;;;;;;5120146;28;20035;-71
2022/10/05 07:40:12;;;;;;;8.52;4.60;;;16.50;99.90;;;;;;5118826;28;20426;-72
2022/10/05 07:43:05;;;;;;;9.40;4.80;;;16.50;99.80;;;;;;5119741;28;20047;-72
2022/10/05 07:45:46;;;;;;;9.98;4.32;;;16.60;99.90;;;;;;5119947;28;20351;-72
2022/10/05 07:48:17;;;;;;;8.38;4.80;;;16.50;99.90;;;;;;5119833;28;20047;-72
2022/10/05 07:50:56;;;;;;;7.78;4.72;;;16.70;99.90;;;;;;5118828;28;20110;-70
2022/10/05 07:53:45;;;;;;;7.70;3.97;;;16.70;99.90;;;;;;5119967;28;20054;-71
2022/10/05 07:56:28;;;;;;;6.72;4.00;;;16.80;99.90;;;;;;5119391;28;20047;-71
2022/10/05 07:59:03;;;;;;;5.43;3.58;;;16.70;99.80;;;;;;5119615;28;20039;-72
2022/10/05 08:01:33;;;;;;;8.73;3.90;;;16.60;99.80;;;;;;5119623;28;20040;-71
2022/10/05 08:04:11;;;;;;;6.43;3.70;;;16.60;99.70;;;;;;5119485;28;20044;-71
2022/10/05 08:06:39;;;;;;;7.22;3.80;;;16.60;99.70;;;;;;5119166;28;20437;-71
2022/10/05 08:09:20;;;;;;;5.35;3.33;;;16.50;99.80;;;;;;5119370;28;20036;-71
2022/10/05 08:12:07;;;;;;;4.97;3.13;;;16.60;99.90;;;;;;5118916;28;20075;-71
2022/10/05 08:15:03;;;;;;;6.20;3.22;;;16.60;99.90;;;;;;5118397;28;20320;-71
2022/10/05 08:18:00;;;;;;;5.78;2.78;;;16.60;99.70;;;;;;5120485;28;20035;-73
2022/10/05 08:20:56;;;;;;;3.90;2.85;;;16.70;99.70;;;;;;5119219;28;20352;-71
2022/10/05 08:23:35;;;;;;;5.28;2.67;;;16.70;99.70;;;;;;5118772;28;20440;-71
2022/10/05 08:26:09;;;;;;;6.30;3.00;;;16.70;99.60;;;;;;5119190;28;20035;-72
2022/10/05 08:29:01;;;;;;;3.55;2.78;;;16.70;99.60;;;;;;5118688;28;20044;-71
2022/10/05 08:31:34;;;;;;;5.88;3.10;;;16.70;99.70;;;;;;5107766;28;20047;-72
2022/10/05 08:34:28;;;;;;;8.27;2.88;;;16.70;99.70;;;;;;5118598;28;20044;-72
2022/10/05 08:36:57;;;;;;;3.63;2.63;;;16.80;99.60;;;;;;5118884;28;20040;-72
2022/10/05 08:39:37;;;;;;;4.78;2.88;;;17.00;99.70;;;;;;5118544;28;20126;-72
2022/10/05 08:42:15;;;;;;;4.40;2.53;;;17.10;99.50;;;;;;5118320;28;20062;-72
2022/10/05 08:45:32;;;;;;;5.20;3.03;;;17.10;99.60;;;;;;5118754;28;20035;-72
2022/10/05 08:48:20;;;;;;;3.50;2.70;;;17.10;99.50;;;;;;5092300;28;20039;-72
2022/10/05 08:51:05;;;;;;;6.22;2.83;;;17.30;99.70;;;;;;5118310;28;20039;-72
2022/10/05 08:54:00;;;;;;;5.20;2.90;;;17.40;99.90;;;;;;5118579;28;20043;-72
2022/10/05 08:56:48;;;;;;;5.63;3.05;;;17.20;99.50;;;;;;5118200;28;20557;-72
2022/10/05 08:59:32;;;;;;;4.95;3.08;;;17.40;99.70;;;;;;5118129;28;20078;-71
2022/10/05 09:02:29;;;;;;;4.13;3.17;;;17.40;99.70;;;;;;5118338;28;20031;-71
2022/10/05 09:05:00;;;;;;;3.88;3.08;;;17.50;99.60;;;;;;5117962;28;20366;-72
2022/10/05 09:08:04;;;;;;;6.85;3.47;;;17.50;99.50;;;;;;5118233;28;20043;-72
2022/10/05 09:10:49;;;;;;;8.65;3.95;;;17.50;99.70;;;;;;5117809;28;20082;-72
2022/10/05 09:13:41;;;;;;;5.03;3.60;;;17.60;99.50;;;;;;5118157;28;20043;-72
2022/10/05 09:16:13;;;;;;;7.82;3.45;;;17.70;99.60;;;;;;5117192;28;20039;-71
2022/10/05 09:19:13;;;;;;;4.70;3.10;;;17.70;99.40;;;;;;5118094;28;20035;-72
2022/10/05 09:21:55;;;;;;;5.88;3.47;;;17.70;99.20;;;;;;5118023;28;20039;-72
2022/10/05 09:24:42;;;;;;;7.47;4.38;;;17.70;99.30;;;;;;5099711;28;20079;-71
2022/10/05 09:27:11;;;;;;;4.90;3.53;;;17.70;99.60;;;;;;5115944;27;20042;-72
2022/10/05 09:30:15;;;;;;;5.20;3.40;;;17.60;99.40;;;;;;5120814;27;20035;-72
2022/10/05 09:33:13;;;;;;;6.38;3.60;;;17.60;99.20;;;;;;5122442;27;20112;-72
2022/10/05 09:36:12;;;;;;;5.07;3.30;;;17.80;99.60;;;;;;5123916;27;20043;-72
2022/10/05 09:39:15;;;;;;;8.07;3.50;;;17.90;99.40;;;;;;5137041;27;20328;-75
2022/10/05 09:41:59;;;;;;;5.40;3.80;;;17.80;99.30;;;;;;5135983;27;20455;-72
2022/10/05 09:44:49;;;;;;;8.50;3.70;;;17.80;99.40;;;;;;5136876;27;20440;-72
2022/10/05 09:47:27;;;;;;;6.90;3.25;;;18.00;99.50;;;;;;5136535;27;20053;-72
2022/10/05 09:50:37;;;;;;;4.95;2.78;;;18.10;99.40;;;;;;5117086;28;20120;-72
2022/10/05 09:53:14;;;;;;;7.32;2.72;;;18.30;99.40;;;;;;5117052;28;20054;-72
2022/10/05 09:55:59;;;;;;;4.13;3.10;;;18.30;99.20;;;;;;5117362;28;20044;-72
2022/10/05 09:58:50;;;;;;;5.03;2.88;;;18.30;98.90;;;;;;5117196;28;20043;-72
2022/10/05 10:01:59;;;;;;;7.15;3.05;;;18.40;99.20;;;;;;5117141;28;20071;-72
2022/10/05 10:04:40;;;;;;;8.02;2.50;;;18.50;99.00;;;;;;5117230;28;20138;-72
2022/10/05 10:07:14;;;;;;;8.13;2.53;;;18.40;98.60;;;;;;5117193;28;20046;-74
2022/10/05 10:10:14;;;;;;;7.25;2.67;;;18.40;98.90;;;;;;5117042;28;20047;-70
2022/10/05 10:12:57;;;;;;;6.38;2.25;;;18.20;98.70;;;;;;5116566;28;20123;-68
2022/10/05 10:15:29;;;;;;;5.38;2.00;;;18.30;99.00;;;;;;5117089;28;20135;-68
2022/10/05 10:18:04;;;;;;;6.35;2.58;;;18.30;99.00;;;;;;5117356;28;20119;-68
2022/10/05 10:21:06;;;;;;;6.03;2.50;;;18.20;98.90;;;;;;5116634;28;20444;-68
2022/10/05 10:23:34;;;;;;;5.15;2.35;;;18.10;98.80;;;;;;5117375;28;20039;-68
2022/10/05 10:26:10;;;;;;;4.80;2.50;;;18.10;99.00;;;;;;5137031;28;20040;-68
2022/10/05 10:28:42;;;;;;;;;;;18.20;99.10;;;;;;5138097;27;20077;-68
2022/10/05 10:31:08;;;;;;;3.42;2.60;;;18.10;99.00;;;;;;5137286;28;19916;-69
2022/10/05 10:33:55;;;;;;;5.55;2.42;;;18.00;98.90;;;;;;5135972;28;20036;-68
2022/10/05 10:36:49;;;;;;;5.10;2.63;;;18.00;99.10;;;;;;5136527;28;20074;-68
2022/10/05 10:39:37;;;;;;;6.40;2.60;;;18.00;99.10;;;;;;5137412;27;20042;-68
2022/10/05 10:42:15;;;;;;;5.20;3.10;;;18.00;99.10;;;;;;5136101;27;20455;-68
2022/10/05 10:44:58;;;;;;;6.05;2.88;;;17.70;99.00;;;;;;5135918;28;20378;-68
2022/10/05 10:47:46;;;;;;;7.32;2.90;;;17.70;99.10;;;;;;5137322;27;20118;-68
2022/10/05 10:50:27;;;;;;;6.60;2.70;;;17.70;99.10;;;;;;5136281;28;20035;-69
2022/10/05 10:53:21;;;;;;;4.68;2.78;;;17.70;98.90;;;;;;5125126;27;20040;-73
2022/10/05 10:56:11;;;;;;;5.50;3.00;;;17.70;99.10;;;;;;5116592;28;20366;-72
2022/10/05 10:59:28;;;;;;;3.72;2.47;;;17.80;99.00;;;;;;5115356;27;20035;-72
2022/10/05 11:02:27;;;;;;;5.83;2.87;;;17.80;99.00;;;;;;5091365;28;20070;-72
2022/10/05 11:05:30;;;;;;;5.32;3.05;;;17.90;98.90;;;;;;5119774;28;20133;-71
2022/10/05 11:08:17;;;;;;;5.28;3.38;;;17.70;98.90;;;;;;5115413;28;20027;-71
2022/10/05 11:11:01;;;;;;;4.00;3.28;;;17.50;98.90;;;;;;5117183;28;20040;-74
2022/10/05 11:13:45;;;;;;;4.93;3.40;;;17.50;99.10;;;;;;5118838;28;20448;-71
2022/10/05 11:16:43;;;;;;;8.23;3.70;;;17.60;99.30;;;;;;5118514;28;20119;-70
2022/10/05 11:19:26;;;;;;;4.07;3.20;;;17.70;99.20;;;;;;5118361;28;20378;-72
2022/10/05 11:22:33;;;;;;;5.40;3.20;;;17.70;99.00;;;;;;5120331;28;20426;-72
2022/10/05 11:24:59;;;;;;;4.07;2.90;;;17.70;99.10;;;;;;5105930;28;20044;-72
2022/10/05 11:27:43;;;;;;;5.43;3.05;;;17.70;99.20;;;;;;5153672;27;20340;-72
2022/10/05 11:30:31;;;;;;;5.93;3.13;;;17.70;99.10;;;;;;5121740;27;20043;-73
2022/10/05 11:33:19;;;;;;;7.10;3.25;;;17.70;98.90;;;;;;5119833;28;20051;-73
2022/10/05 11:36:07;;;;;;;5.78;3.13;;;17.70;98.80;;;;;;5126587;27;20043;-72
2022/10/05 11:38:36;;;;;;;4.50;2.70;;;17.50;98.90;;;;;;5139059;27;20127;-71
2022/10/05 11:41:16;;;;;;;4.82;2.90;;;17.50;99.10;;;;;;5141292;27;20051;-69
2022/10/05 11:43:45;;;;;;;5.00;3.08;;;17.70;99.20;;;;;;5140353;27;20074;-69
2022/10/05 11:46:45;;;;;;;6.70;3.33;;;17.80;99.00;;;;;;5140272;27;20133;-71
2022/10/05 11:49:38;;;;;;;6.22;2.92;;;17.70;98.60;;;;;;5127895;27;20044;-73
2022/10/05 11:52:08;;;;;;;4.07;3.20;;;17.70;98.80;;;;;;5119585;28;20035;-71
2022/10/05 11:54:44;;;;;;;5.93;3.00;;;17.70;98.60;;;;;;5138351;27;20041;-71
2022/10/05 11:57:36;;;;;;;6.72;3.10;;;17.70;98.80;;;;;;5140124;27;20046;-71
2022/10/05 12:00:16;;;;;;;4.72;3.38;;;17.60;98.80;;;;;;5138928;27;20114;-72
2022/10/05 12:02:51;;;;;;;7.80;3.25;;;17.60;99.00;;;;;;5139924;27;20031;-75
2022/10/05 12:05:39;;;;;;;4.35;2.72;;;17.50;98.80;;;;;;5132067;27;20043;-81
2022/10/05 12:08:18;;;;;;;6.10;2.75;;;17.60;99.00;;;;;;5152742;27;20035;-83
2022/10/05 12:10:50;;;;;;;6.32;3.10;;;17.30;99.00;;;;;;5152351;27;20050;-72
2022/10/05 12:13:34;;;;;;;6.70;2.90;;;17.40;99.20;;;;;;5118670;28;20043;-73
2022/10/05 12:16:21;;;;;;;7.63;3.40;;;17.60;99.30;;;;;;5119770;27;20044;-73
2022/10/05 12:19:01;;;;;;;5.03;3.90;;;17.70;99.00;;;;;;5119140;27;20043;-73
2022/10/05 12:22:02;;;;;;;7.38;3.90;;;17.80;98.90;;;;;;5118970;28;20047;-72
2022/10/05 12:24:34;;;;;;;4.82;3.80;;;17.70;98.90;;;;;;5118389;28;20394;-72
2022/10/05 12:27:15;;;;;;;5.22;3.65;;;17.80;99.00;;;;;;5118577;28;20444;-74
2022/10/05 12:29:52;;;;;;;5.25;4.75;;;18.00;99.20;;;;;;5118873;28;20055;-73
2022/10/05 12:32:20;;;;;;;7.68;4.88;;;17.90;99.00;;;;;;5119313;27;20042;-72
2022/10/05 12:35:06;;;;;;;6.32;4.28;;;17.90;98.90;;;;;;5118364;28;20043;-73
2022/10/05 12:37:47;;;;;;;8.45;5.20;;;18.00;99.00;;;;;;5118719;28;20046;-77
2022/10/05 12:40:32;;;;;;;6.68;4.53;;;17.80;99.00;;;;;;5117436;28;20051;-73
2022/10/05 12:43:24;;;;;;;5.57;4.60;;;17.70;99.20;;;;;;5117726;28;20081;-73
2022/10/05 12:46:16;;;;;;;6.53;4.75;;;17.90;99.20;;;;;;5117506;28;20043;-73
2022/10/05 12:48:56;;;;;;;7.03;4.55;;;17.90;99.10;;;;;;5118565;28;20067;-73
2022/10/05 12:51:44;;;;;;;7.82;4.30;;;17.90;99.00;;;;;;5129999;27;20172;-73
2022/10/05 12:54:28;;;;;;;6.25;4.45;;;17.80;99.10;;;;;;5137867;27;20385;-72
2022/10/05 12:56:56;;;;;;;7.03;3.97;;;17.80;99.10;;;;;;5139025;27;20467;-73
2022/10/05 12:59:38;;;;;;;5.18;3.85;;;17.80;99.20;;;;;;5138706;27;20043;-73
2022/10/05 13:02:28;;;;;;;6.25;4.18;;;17.90;99.10;;;;;;5138906;27;20039;-72
2022/10/05 13:04:54;;;;;;;6.78;3.88;;;17.80;99.10;;;;;;5138940;27;20050;-73
2022/10/05 13:07:50;;;;;;;3.90;3.50;;;17.80;99.20;;;;;;5138704;27;20027;-73
2022/10/05 13:10:28;;;;;;;5.60;3.70;;;17.90;99.30;;;;;;5138877;27;20133;-73
2022/10/05 13:13:38;;;;;;;6.85;3.42;;;17.90;99.40;;;;;;5137989;27;20043;-72
2022/10/05 13:16:06;;;;;;;5.32;3.35;;;17.90;99.30;;;;;;5138335;27;20504;-73
2022/10/05 13:19:02;;;;;;;5.68;3.63;;;18.00;99.30;;;;;;5138605;27;20043;-73
2022/10/05 13:21:45;;;;;;;4.60;3.13;;;18.00;99.40;;;;;;5137295;27;20058;-72
2022/10/05 13:24:28;;;;;;;5.20;2.85;;;17.90;99.30;;;;;;5138524;27;20043;-74
2022/10/05 13:27:20;;;;;;;7.55;3.40;;;18.00;99.40;;;;;;5138530;27;20035;-73
2022/10/05 13:30:12;;;;;;;9.32;3.33;;;18.20;99.50;;;;;;5138097;27;20446;-72
2022/10/05 13:33:05;;;;;;;4.18;2.90;;;18.10;99.30;;;;;;5137382;27;20370;-71
2022/10/05 13:35:37;;;;;;;4.82;2.83;;;18.10;99.40;;;;;;5137394;27;20428;-73
2022/10/05 13:38:25;;;;;;;5.75;3.25;;;18.20;99.30;;;;;;5138194;27;20379;-74
2022/10/05 13:41:10;;;;;;;7.32;3.30;;;18.20;99.30;;;;;;5137759;27;20432;-72
2022/10/05 13:43:42;;;;;;;7.03;2.95;;;18.20;99.20;;;;;;5138164;27;20092;-73
2022/10/05 13:46:17;;;;;;;6.72;3.35;;;18.20;99.40;;;;;;5138194;27;20050;-72
2022/10/05 13:49:10;;;;;;;7.10;3.95;;;18.20;99.30;;;;;;5138180;27;20324;-71
2022/10/05 13:51:59;;;;;;;10.50;3.88;;;18.30;99.20;;;;;;5138012;27;20049;-72
2022/10/05 13:54:42;;;;;;;6.32;3.42;;;18.00;99.40;;;;;;5138077;27;20408;-71
2022/10/05 13:57:43;;;;;;;9.35;3.53;;;18.20;99.50;;;;;;5138097;27;20035;-76
2022/10/05 14:00:23;;;;;;;6.93;3.08;;;18.20;99.40;;;;;;5137968;27;20416;-76
2022/10/05 14:02:51;;;;;;;5.60;3.22;;;18.40;99.50;;;;;;5136691;27;20336;-72
2022/10/05 14:05:28;;;;;;;6.88;3.60;;;18.50;99.30;;;;;;5137946;27;20043;-82
2022/10/05 14:08:01;;;;;;;9.30;3.95;;;18.50;99.10;;;;;;5137034;27;20047;-94
2022/10/05 14:10:41;;;;;;;6.10;3.08;;;18.30;99.30;;;;;;5138330;27;20354;-86